Surface/Precipitation History
09/01/2014 22:38  to  9/2/2014 22:38
Change End Date:
Date/Time
(MDT)
Sf
Temp Chem Water Layer Surface Precipitation
Sf Sub Frz Factor Pct Depth IcePct Cond Salin Type Intens Accum Rate
09/02/2014 22:25 Dry 57.4F 65F - - - - - 39 mhos 3224 None None - -
09/02/2014 22:18 Dry 57.4F 65F - - - - - 39 mhos 3224 None None - -
09/02/2014 22:08 Dry 57.9F 65F - - - - - 39 mhos 3201 None None - -
09/02/2014 21:58 Dry 58.6F 65F - - - - - 39 mhos 3172 None None - -
09/02/2014 21:55 Dry 58.6F 65F - - - - - 39 mhos 3172 None None - -
09/02/2014 21:48 Dry 59.0F 65F - - - - - 39 mhos 3161 None None - -
09/02/2014 21:38 Dry 59.7F 65F - - - - - 39 mhos 3114 None None - -
09/02/2014 21:28 Dry 60.1F 65F - - - - - 39 mhos 3097 None None - -
09/02/2014 21:25 Dry 60.1F 65F - - - - - 39 mhos 3097 None None - -
09/02/2014 21:18 Dry 60.4F 65F - - - - - 39 mhos 3087 None None - -
09/02/2014 21:08 Dry 61.0F 65F - - - - - 39 mhos 3070 None None - -
09/02/2014 20:58 Dry 61.5F 64F - - - - - 39 mhos 3049 None None - -
09/02/2014 20:55 Dry 61.7F 64F - - - - - 39 mhos 3044 None None - -
09/02/2014 20:48 Dry 62.1F 64F - - - - - 38 mhos 3010 None None - -
09/02/2014 20:40 Dry 62.2F 64F - - - - - 38 mhos 3000 None None - -
Date/Time
(MDT)
Sf
Temp Chem Water Layer Surface Precipitation
Sf Sub Frz Factor Pct Depth IcePct Cond Salin Type Intens Accum Rate
09/02/2014 20:38 Dry 62.4F 64F - - - - - 38 mhos 2995 None None - -
09/02/2014 20:28 Dry 63.3F 64F - - - - - 38 mhos 2969 None None - -
09/02/2014 20:25 Dry 63.5F 64F - - - - - 38 mhos 2959 None None - -
09/02/2014 20:18 Dry 64.0F 64F - - - - - 38 mhos 2945 None None - -
09/02/2014 20:07 Dry 64.9F 64F - - - - - 38 mhos 2893 None None - -
09/02/2014 19:57 Dry 66.0F 64F - - - - - 38 mhos 2860 None None - -
09/02/2014 19:55 Dry 66.6F 64F - - - - - 38 mhos 2846 None None - -
09/02/2014 19:47 Dry 67.6F 64F - - - - - 38 mhos 2793 None None - -
09/02/2014 19:40 Dry 69.1F 64F - - - - - 38 mhos 2729 None None - -
09/02/2014 19:37 Dry 69.8F 64F - - - - - 38 mhos 2712 None None - -
09/02/2014 19:27 Dry 71.1F 64F - - - - - 37 mhos 2655 None None - -
09/02/2014 19:25 Dry 71.4F 64F - - - - - 37 mhos 2647 None None - -
09/02/2014 19:17 Dry 72.9F 64F - - - - - 37 mhos 2610 None None - -
09/02/2014 19:10 Dry 73.9F 64F - - - - - 37 mhos 2565 None None - -
09/02/2014 19:07 Dry 74.5F 63F - - - - - 37 mhos 2553 None None - -
Date/Time
(MDT)
Sf
Temp Chem Water Layer Surface Precipitation
Sf Sub Frz Factor Pct Depth IcePct Cond Salin Type Intens Accum Rate
09/02/2014 18:57 Dry 75.7F 63F - - - - - 37 mhos 2501 None None - -
09/02/2014 18:55 Dry 76.3F 63F - - - - - 37 mhos 2490 None None - -
09/02/2014 18:47 Dry 77.5F 63F - - - - - 37 mhos 2444 None None - -
09/02/2014 18:40 Dry 78.4F 63F - - - - - 37 mhos 2424 None None - -
09/02/2014 18:37 Dry 78.8F 63F - - - - - 37 mhos 2413 None None - -
09/02/2014 18:27 Dry 79.9F 63F - - - - - 36 mhos 2373 None None - -
09/02/2014 18:25 Dry 80.2F 63F - - - - - 36 mhos 2366 None None - -
09/02/2014 18:17 Dry 81.0F 63F - - - - - 36 mhos 2333 None None - -
09/02/2014 18:10 Dry 81.9F 63F - - - - - 36 mhos 2298 None None - -
09/02/2014 18:07 Dry 82.4F 63F - - - - - 36 mhos 2289 None None - -
09/02/2014 17:57 Dry 83.5F 63F - - - - - 36 mhos 2267 None None - -
09/02/2014 17:55 Dry 83.7F 63F - - - - - 36 mhos 2264 None None - -
09/02/2014 17:47 Dry 84.2F 62F - - - - - 36 mhos 2237 None None - -
09/02/2014 17:37 Dry 85.5F 62F - - - - - 36 mhos 2198 None None - -
09/02/2014 17:27 Dry 86.4F 62F - - - - - 35 mhos 2166 None None - -
Date/Time
(MDT)
Sf
Temp Chem Water Layer Surface Precipitation
Sf Sub Frz Factor Pct Depth IcePct Cond Salin Type Intens Accum Rate
09/02/2014 17:27 Dry 86.4F 62F - - - - - 35 mhos 2166 None None - -
09/02/2014 17:17 Dry 87.1F 62F - - - - - 35 mhos 2152 None None - -
09/02/2014 17:07 Dry 87.8F 62F - - - - - 35 mhos 2124 None None - -
09/02/2014 16:57 Dry 89.1F 62F - - - - - 35 mhos 2088 None None - -
09/02/2014 16:46 Dry 90.0F 62F - - - - - 35 mhos 2073 None None - -
09/02/2014 16:40 Dry 90.3F 62F - - - - - 35 mhos 2052 None None - -
09/02/2014 16:36 Dry 91.2F 62F - - - - - 35 mhos 2038 None None - -
09/02/2014 16:26 Dry 92.1F 62F - - - - - 34 mhos 2010 None None - -
09/02/2014 16:26 Dry 92.5F 61F - - - - - 34 mhos 2005 None None - -
09/02/2014 16:16 Dry 92.7F 61F - - - - - 34 mhos 1987 None None - -
09/02/2014 16:06 Dry 93.7F 61F - - - - - 34 mhos 1970 None None - -
09/02/2014 15:56 Dry 93.9F 61F - - - - - 34 mhos 1968 None None - -
09/02/2014 15:55 Dry 93.9F 61F - - - - - 34 mhos 1968 None None - -
09/02/2014 15:46 Dry 94.3F 61F - - - - - 34 mhos 1949 None None - -
09/02/2014 15:36 Dry 94.6F 61F - - - - - 34 mhos 1957 None None - -
Date/Time
(MDT)
Sf
Temp Chem Water Layer Surface Precipitation
Sf Sub Frz Factor Pct Depth IcePct Cond Salin Type Intens Accum Rate
09/02/2014 15:26 Dry 93.7F 61F - - - - - 34 mhos 1970 None None - -
09/02/2014 15:25 Dry 93.7F 61F - - - - - 34 mhos 1970 None None - -
09/02/2014 15:16 Dry 93.9F 61F - - - - - 34 mhos 1968 None None - -
09/02/2014 15:06 Dry 93.2F 60F - - - - - 34 mhos 1980 None None - -
09/02/2014 14:56 Dry 93.2F 60F - - - - - 34 mhos 1993 None None - -
09/02/2014 14:55 Dry 93.2F 60F - - - - - 34 mhos 1980 None None - -
09/02/2014 14:46 Dry 92.5F 60F - - - - - 34 mhos 2003 None None - -
09/02/2014 14:36 Dry 92.3F 60F - - - - - 34 mhos 2008 None None - -
09/02/2014 14:26 Dry 92.3F 60F - - - - - 34 mhos 2008 None None - -
09/02/2014 14:25 Dry 92.1F 60F - - - - - 34 mhos 2010 None None - -
09/02/2014 14:16 Dry 91.9F 60F - - - - - 34 mhos 2013 None None - -
09/02/2014 14:10 Dry 91.8F 60F - - - - - 35 mhos 2028 None None - -
09/02/2014 14:06 Dry 91.8F 60F - - - - - 35 mhos 2028 None None - -
09/02/2014 13:56 Dry 91.8F 60F - - - - - 35 mhos 2028 None None - -
09/02/2014 13:55 Dry 91.6F 60F - - - - - 35 mhos 2032 None None - -
Date/Time
(MDT)
Sf
Temp Chem Water Layer Surface Precipitation
Sf Sub Frz Factor Pct Depth IcePct Cond Salin Type Intens Accum Rate
09/02/2014 13:46 Dry 91.0F 60F - - - - - 35 mhos 2041 None None - -
09/02/2014 13:36 Dry 90.3F 60F - - - - - 35 mhos 2067 None None - -
09/02/2014 13:26 Dry 89.2F 60F - - - - - 35 mhos 2100 None None - -
09/02/2014 13:25 Dry 89.4F 60F - - - - - 35 mhos 2097 None None - -
09/02/2014 13:15 Dry 88.2F 60F - - - - - 35 mhos 2133 None None - -
09/02/2014 13:10 Dry 87.6F 60F - - - - - 35 mhos 2144 None None - -
09/02/2014 13:05 Dry 87.1F 60F - - - - - 35 mhos 2152 None None - -
09/02/2014 12:55 Dry 86.2F 60F - - - - - 36 mhos 2184 None None - -
09/02/2014 12:55 Dry 86.2F 60F - - - - - 36 mhos 2184 None None - -
09/02/2014 12:45 Dry 85.6F 60F - - - - - 36 mhos 2210 None None - -
09/02/2014 12:40 Dry 84.9F 60F - - - - - 36 mhos 2237 None None - -
09/02/2014 12:35 Dry 84.2F 60F - - - - - 36 mhos 2252 None None - -
09/02/2014 12:25 Dry 82.6F 60F - - - - - 36 mhos 2302 None None - -
09/02/2014 12:15 Dry 81.3F 60F - - - - - 36 mhos 2343 None None - -
09/02/2014 12:10 Dry 80.4F 60F - - - - - 36 mhos 2363 None None - -
Date/Time
(MDT)
Sf
Temp Chem Water Layer Surface Precipitation
Sf Sub Frz Factor Pct Depth IcePct Cond Salin Type Intens Accum Rate
09/02/2014 12:05 Dry 79.7F 60F - - - - - 37 mhos 2393 None None - -
09/02/2014 11:55 Dry 78.3F 60F - - - - - 37 mhos 2427 None None - -
09/02/2014 11:55 Dry 78.3F 60F - - - - - 37 mhos 2427 None None - -
09/02/2014 11:45 Dry 77.5F 60F - - - - - 37 mhos 2462 None None - -
09/02/2014 11:40 Dry 76.6F 60F - - - - - 37 mhos 2498 None None - -
09/02/2014 11:35 Dry 76.3F 60F - - - - - 37 mhos 2508 None None - -
09/02/2014 11:25 Dry 74.5F 60F - - - - - 37 mhos 2568 None None - -
09/02/2014 11:25 Dry 74.5F 60F - - - - - 37 mhos 2568 None None - -
09/02/2014 11:15 Dry 73.4F 60F - - - - - 37 mhos 2599 None None - -
09/02/2014 11:10 Dry 72.5F 60F - - - - - 38 mhos 2637 None None - -
09/02/2014 11:05 Dry 71.8F 60F - - - - - 38 mhos 2657 None None - -
09/02/2014 10:55 Dry 70.0F 60F - - - - - 38 mhos 2727 None None - -
09/02/2014 10:55 Dry 70.0F 60F - - - - - 38 mhos 2727 None None - -
09/02/2014 10:45 Dry 68.9F 60F - - - - - 38 mhos 2778 None None - -
09/02/2014 10:40 Dry 67.8F 60F - - - - - 38 mhos 2805 None None - -
Date/Time
(MDT)
Sf
Temp Chem Water Layer Surface Precipitation
Sf Sub Frz Factor Pct Depth IcePct Cond Salin Type Intens Accum Rate
09/02/2014 10:35 Dry 66.9F 60F - - - - - 38 mhos 2832 None None - -
09/02/2014 10:25 Dry 65.7F 60F - - - - - 38 mhos 2896 None None - -
09/02/2014 10:25 Dry 65.7F 60F - - - - - 38 mhos 2896 None None - -
09/02/2014 10:14 Dry 64.0F 60F - - - - - 39 mhos 2967 None None - -
09/02/2014 10:10 Dry 63.1F 60F - - - - - 39 mhos 2997 None None - -
09/02/2014 10:04 Dry 62.2F 60F - - - - - 39 mhos 3023 None None - -
09/02/2014 09:55 Dry 60.3F 60F - - - - - 39 mhos 3116 None None - -
09/02/2014 09:54 Dry 60.1F 60F - - - - - 39 mhos 3122 None None - -
09/02/2014 09:44 Dry 58.6F 60F - - - - - 39 mhos 3172 None None - -
09/02/2014 09:40 Dry 57.6F 60F - - - - - 39 mhos 3212 None None - -
09/02/2014 09:34 Dry 56.7F 60F - - - - - 39 mhos 3248 None None - -
09/02/2014 09:25 Dry 55.0F 60F - - - - - 39 mhos 3335 None None - -
09/02/2014 09:24 Dry 55.0F 60F - - - - - 39 mhos 3341 None None - -
09/02/2014 09:14 Dry 53.1F 60F - - - - - 39 mhos 3419 None None - -
09/02/2014 09:10 Dry 52.2F 61F - - - - - 39 mhos 3432 None None - -
Date/Time
(MDT)
Sf
Temp Chem Water Layer Surface Precipitation
Sf Sub Frz Factor Pct Depth IcePct Cond Salin Type Intens Accum Rate
09/02/2014 09:04 Dry 51.1F 61F - - - - - 39 mhos 3480 None None - -
09/02/2014 08:55 Dry 49.8F 61F - - - - - 39 mhos 3536 None None - -
09/02/2014 08:54 Dry 49.6F 61F - - - - - 39 mhos 3543 None None - -
09/02/2014 08:44 Dry 47.8F 61F - - - - - 39 mhos 3596 None None - -
09/02/2014 08:40 Dry 47.3F 61F - - - - - 38 mhos 3597 None None - -
09/02/2014 08:34 Dry 46.2F 61F - - - - - 38 mhos 3615 None None - -
09/02/2014 08:26 Dry 45.0F 61F - - - - - 37 mhos 3566 None None - -
09/02/2014 08:24 Dry 45.0F 61F - - - - - 37 mhos 3547 None None - -
09/02/2014 08:14 Dry 43.3F 61F - - - - - 36 mhos 3519 None None - -
09/02/2014 08:10 Dry 42.4F 61F - - - - - 36 mhos 3507 None None - -
09/02/2014 08:04 Dry 41.9F 61F - - - - - 36 mhos 3538 None None - -
09/02/2014 07:55 Dry 40.6F 61F - - - - - 35 mhos 3526 None None - -
09/02/2014 07:54 Dry 40.5F 61F - - - - - 35 mhos 3509 None None - -
09/02/2014 07:44 Dry 39.2F 61F - - - - - 34 mhos 3521 None None - -
09/02/2014 07:40 Dry 38.8F 61F - - - - - 34 mhos 3491 None None - -
Date/Time
(MDT)
Sf
Temp Chem Water Layer Surface Precipitation
Sf Sub Frz Factor Pct Depth IcePct Cond Salin Type Intens Accum Rate
09/02/2014 07:34 Dry 38.5F 61F - - - - - 34 mhos 3507 None None - -
09/02/2014 07:25 Dry 37.9F 62F - - - - - 34 mhos 3540 None None - -
09/02/2014 07:24 Dry 37.9F 62F - - - - - 34 mhos 3540 None None - -
09/02/2014 07:14 Dry 37.6F 62F - - - - - 35 mhos 3684 None None - -
09/02/2014 07:10 Dry 37.6F 62F - - - - - 35 mhos 3737 None None - -
09/02/2014 07:04 Dry 37.6F 62F - - - - - 35 mhos 3737 None None - -
09/02/2014 06:55 Dry 37.8F 62F - - - - - 36 mhos 3839 None None - -
09/02/2014 06:54 Dry 37.8F 62F - - - - - 36 mhos 3868 None None - -
09/02/2014 06:43 Dry 38.3F 62F - - - - - 36 mhos 3812 None None - -
09/02/2014 06:40 Dry 38.5F 62F - - - - - 36 mhos 3803 None None - -
09/02/2014 06:33 Dry 38.8F 62F - - - - - 36 mhos 3694 None None - -
09/02/2014 06:26 Dry 39.0F 62F - - - - - 36 mhos 3713 None None - -
09/02/2014 06:23 Dry 39.2F 62F - - - - - 36 mhos 3704 None None - -
09/02/2014 06:13 Dry 39.4F 62F - - - - - 36 mhos 3750 None None - -
09/02/2014 06:03 Dry 39.6F 62F - - - - - 36 mhos 3714 None None - -
Date/Time
(MDT)
Sf
Temp Chem Water Layer Surface Precipitation
Sf Sub Frz Factor Pct Depth IcePct Cond Salin Type Intens Accum Rate
09/02/2014 05:55 Dry 39.6F 62F - - - - - 36 mhos 3741 None None - -
09/02/2014 05:53 Dry 39.7F 62F - - - - - 36 mhos 3733 None None - -
09/02/2014 05:43 Dry 39.7F 62F - - - - - 36 mhos 3761 None None - -
09/02/2014 05:33 Dry 39.9F 62F - - - - - 37 mhos 3772 None None - -
09/02/2014 05:26 Dry 39.9F 62F - - - - - 37 mhos 3801 None None - -
09/02/2014 05:23 Dry 40.1F 62F - - - - - 37 mhos 3797 None None - -
09/02/2014 05:13 Dry 40.3F 62F - - - - - 37 mhos 3842 None None - -
09/02/2014 05:03 Dry 40.6F 63F - - - - - 37 mhos 3824 None None - -
09/02/2014 04:55 Dry 41.0F 63F - - - - - 37 mhos 3798 None None - -
09/02/2014 04:53 Dry 41.2F 63F - - - - - 37 mhos 3790 None None - -
09/02/2014 04:43 Dry 41.4F 63F - - - - - 37 mhos 3781 None None - -
09/02/2014 04:33 Dry 41.7F 63F - - - - - 38 mhos 3792 None None - -
09/02/2014 04:25 Dry 41.9F 63F - - - - - 38 mhos 3784 None None - -
09/02/2014 04:23 Dry 41.9F 63F - - - - - 38 mhos 3784 None None - -
09/02/2014 04:13 Dry 42.3F 63F - - - - - 38 mhos 3767 None None - -
Date/Time
(MDT)
Sf
Temp Chem Water Layer Surface Precipitation
Sf Sub Frz Factor Pct Depth IcePct Cond Salin Type Intens Accum Rate
09/02/2014 04:03 Dry 42.3F 63F - - - - - 38 mhos 3788 None None - -
09/02/2014 03:55 Dry 42.4F 63F - - - - - 38 mhos 3809 None None - -
09/02/2014 03:53 Dry 42.4F 63F - - - - - 38 mhos 3814 None None - -
09/02/2014 03:43 Dry 42.8F 63F - - - - - 38 mhos 3822 None None - -
09/02/2014 03:32 Dry 43.0F 63F - - - - - 39 mhos 3844 None None - -
09/02/2014 03:25 Dry 43.3F 63F - - - - - 39 mhos 3827 None None - -
09/02/2014 03:22 Dry 43.3F 63F - - - - - 39 mhos 3827 None None - -
09/02/2014 03:12 Dry 43.5F 63F - - - - - 39 mhos 3810 None None - -
09/02/2014 03:02 Dry 43.9F 63F - - - - - 39 mhos 3824 None None - -
09/02/2014 02:55 Dry 44.1F 63F - - - - - 39 mhos 3816 None None - -
09/02/2014 02:52 Dry 44.2F 63F - - - - - 39 mhos 3807 None None - -
09/02/2014 02:42 Dry 44.8F 63F - - - - - 39 mhos 3782 None None - -
09/02/2014 02:32 Dry 45.1F 63F - - - - - 39 mhos 3763 None None - -
09/02/2014 02:26 Dry 45.5F 64F - - - - - 39 mhos 3741 None None - -
09/02/2014 02:22 Dry 45.7F 64F - - - - - 39 mhos 3733 None None - -
Date/Time
(MDT)
Sf
Temp Chem Water Layer Surface Precipitation
Sf Sub Frz Factor Pct Depth IcePct Cond Salin Type Intens Accum Rate
09/02/2014 02:12 Dry 46.0F 64F - - - - - 39 mhos 3747 None None - -
09/02/2014 02:02 Dry 46.2F 64F - - - - - 39 mhos 3739 None None - -
09/02/2014 01:55 Dry 46.2F 64F - - - - - 39 mhos 3739 None None - -
09/02/2014 01:52 Dry 46.2F 64F - - - - - 39 mhos 3739 None None - -
09/02/2014 01:42 Dry 46.4F 64F - - - - - 39 mhos 3723 None None - -
09/02/2014 01:32 Dry 46.8F 64F - - - - - 39 mhos 3707 None None - -
09/02/2014 01:25 Dry 46.9F 64F - - - - - 39 mhos 3699 None None - -
09/02/2014 01:22 Dry 47.1F 64F - - - - - 39 mhos 3691 None None - -
09/02/2014 01:12 Dry 47.5F 64F - - - - - 39 mhos 3676 None None - -
09/02/2014 01:02 Dry 47.8F 64F - - - - - 39 mhos 3657 None None - -
09/02/2014 00:55 Dry 48.0F 64F - - - - - 39 mhos 3645 None None - -
09/02/2014 00:52 Dry 48.0F 64F - - - - - 39 mhos 3645 None None - -
09/02/2014 00:42 Dry 48.2F 64F - - - - - 39 mhos 3638 None None - -
09/02/2014 00:32 Dry 48.6F 64F - - - - - 39 mhos 3623 None None - -
09/02/2014 00:26 Dry 48.7F 64F - - - - - 39 mhos 3615 None None - -
Date/Time
(MDT)
Sf
Temp Chem Water Layer Surface Precipitation
Sf Sub Frz Factor Pct Depth IcePct Cond Salin Type Intens Accum Rate
09/02/2014 00:22 Dry 48.9F 64F - - - - - 39 mhos 3600 None None - -
09/02/2014 00:12 Dry 49.1F 64F - - - - - 39 mhos 3593 None None - -
09/02/2014 00:01 Dry 49.6F 64F - - - - - 39 mhos 3571 None None - -
09/01/2014 23:57 Dry 49.8F 64F - - - - - 39 mhos 3564 None None - -
09/01/2014 23:51 Dry 50.0F 64F - - - - - 39 mhos 3557 None None - -
09/01/2014 23:41 Dry 50.5F 64F - - - - - 39 mhos 3528 None None - -
09/01/2014 23:31 Dry 51.3F 64F - - - - - 39 mhos 3500 None None - -
09/01/2014 23:26 Dry 51.3F 64F - - - - - 39 mhos 3493 None None - -
09/01/2014 23:21 Dry 51.6F 64F - - - - - 39 mhos 3479 None None - -
09/01/2014 23:11 Dry 52.2F 64F - - - - - 39 mhos 3459 None None - -
09/01/2014 23:01 Dry 52.5F 64F - - - - - 39 mhos 3445 None None - -
09/01/2014 22:56 Dry 52.7F 64F - - - - - 39 mhos 3432 None None - -
09/01/2014 22:51 Dry 52.9F 64F - - - - - 39 mhos 3425 None None - -
09/01/2014 22:41 Dry 53.6F 64F - - - - - 39 mhos 3399 None None - -
Change End Date:
Copyright © 1998-2005 Surface Systems, Inc.
All Rights Reserved
Send comments about the data to:
SCAN Web ® is a registered trademark of Surface Systems, Inc.
SCAN Web Version 5.6